sensor_id;sensor_type;location;lat;lon;timestamp;P1;durP1;ratioP1;P2;durP2;ratioP2
76978;SDS011;65911;47.502;19.148;2023-03-23T00:02:39;23.08;;;12.38;;
76978;SDS011;65911;47.502;19.148;2023-03-23T00:05:40;23.98;;;12.82;;
76978;SDS011;65911;47.502;19.148;2023-03-23T00:08:51;27.15;;;13.57;;
76978;SDS011;65911;47.502;19.148;2023-03-23T00:11:57;31.70;;;13.67;;
76978;SDS011;65911;47.502;19.148;2023-03-23T00:15:07;28.92;;;14.05;;
76978;SDS011;65911;47.502;19.148;2023-03-23T00:18:09;25.98;;;13.65;;
76978;SDS011;65911;47.502;19.148;2023-03-23T00:21:23;30.17;;;13.47;;
76978;SDS011;65911;47.502;19.148;2023-03-23T00:24:35;32.95;;;14.18;;
76978;SDS011;65911;47.502;19.148;2023-03-23T00:27:37;27.25;;;15.23;;
76978;SDS011;65911;47.502;19.148;2023-03-23T00:30:39;28.80;;;14.48;;
76978;SDS011;65911;47.502;19.148;2023-03-23T00:33:40;28.63;;;13.75;;
76978;SDS011;65911;47.502;19.148;2023-03-23T00:36:41;29.25;;;15.02;;
76978;SDS011;65911;47.502;19.148;2023-03-23T00:39:46;28.00;;;14.13;;
76978;SDS011;65911;47.502;19.148;2023-03-23T00:42:48;25.50;;;13.83;;
76978;SDS011;65911;47.502;19.148;2023-03-23T00:45:49;27.05;;;15.50;;
76978;SDS011;65911;47.502;19.148;2023-03-23T00:48:53;30.55;;;15.00;;
76978;SDS011;65911;47.502;19.148;2023-03-23T00:51:56;27.30;;;14.67;;
76978;SDS011;65911;47.502;19.148;2023-03-23T00:54:58;30.63;;;15.30;;
76978;SDS011;65911;47.502;19.148;2023-03-23T00:57:59;29.98;;;14.68;;
76978;SDS011;65911;47.502;19.148;2023-03-23T01:01:01;30.80;;;15.40;;
76978;SDS011;65911;47.502;19.148;2023-03-23T01:04:02;31.27;;;16.33;;
76978;SDS011;65911;47.502;19.148;2023-03-23T01:07:08;32.38;;;16.70;;
76978;SDS011;65911;47.502;19.148;2023-03-23T01:10:14;28.13;;;15.07;;
76978;SDS011;65911;47.502;19.148;2023-03-23T01:13:18;28.67;;;15.17;;
76978;SDS011;65911;47.502;19.148;2023-03-23T01:16:19;29.55;;;14.73;;
76978;SDS011;65911;47.502;19.148;2023-03-23T01:19:21;30.27;;;16.00;;
76978;SDS011;65911;47.502;19.148;2023-03-23T01:22:22;29.93;;;14.63;;
76978;SDS011;65911;47.502;19.148;2023-03-23T01:25:23;29.65;;;14.98;;
76978;SDS011;65911;47.502;19.148;2023-03-23T01:28:25;25.73;;;13.77;;
76978;SDS011;65911;47.502;19.148;2023-03-23T01:31:26;27.05;;;14.80;;
76978;SDS011;65911;47.502;19.148;2023-03-23T01:34:28;25.38;;;14.05;;
76978;SDS011;65911;47.502;19.148;2023-03-23T01:37:29;29.42;;;14.23;;
76978;SDS011;65911;47.502;19.148;2023-03-23T01:40:31;29.40;;;14.35;;
76978;SDS011;65911;47.502;19.148;2023-03-23T01:43:32;25.40;;;14.23;;
76978;SDS011;65911;47.502;19.148;2023-03-23T01:46:34;29.55;;;14.50;;
76978;SDS011;65911;47.502;19.148;2023-03-23T01:49:37;24.60;;;14.50;;
76978;SDS011;65911;47.502;19.148;2023-03-23T01:52:42;35.90;;;16.97;;
76978;SDS011;65911;47.502;19.148;2023-03-23T01:55:43;31.08;;;16.20;;
76978;SDS011;65911;47.502;19.148;2023-03-23T01:58:49;29.55;;;15.30;;
76978;SDS011;65911;47.502;19.148;2023-03-23T02:01:51;26.08;;;15.15;;
76978;SDS011;65911;47.502;19.148;2023-03-23T02:04:55;29.23;;;16.27;;
76978;SDS011;65911;47.502;19.148;2023-03-23T02:08:00;27.20;;;14.57;;
76978;SDS011;65911;47.502;19.148;2023-03-23T02:11:12;28.02;;;14.88;;
76978;SDS011;65911;47.502;19.148;2023-03-23T02:14:15;27.63;;;14.10;;
76978;SDS011;65911;47.502;19.148;2023-03-23T02:23:40;25.80;;;13.80;;
76978;SDS011;65911;47.502;19.148;2023-03-23T02:26:55;26.35;;;13.65;;
76978;SDS011;65911;47.502;19.148;2023-03-23T02:30:10;24.60;;;14.00;;
76978;SDS011;65911;47.502;19.148;2023-03-23T02:33:35;29.17;;;14.15;;
76978;SDS011;65911;47.502;19.148;2023-03-23T02:36:45;28.52;;;14.43;;
76978;SDS011;65911;47.502;19.148;2023-03-23T02:39:51;22.92;;;12.60;;
76978;SDS011;65911;47.502;19.148;2023-03-23T02:42:54;23.98;;;12.95;;
76978;SDS011;65911;47.502;19.148;2023-03-23T02:45:57;26.10;;;13.03;;
76978;SDS011;65911;47.502;19.148;2023-03-23T02:49:00;24.63;;;13.20;;
76978;SDS011;65911;47.502;19.148;2023-03-23T02:52:04;27.45;;;12.75;;
76978;SDS011;65911;47.502;19.148;2023-03-23T02:55:08;24.80;;;12.37;;
76978;SDS011;65911;47.502;19.148;2023-03-23T02:58:12;22.42;;;11.93;;
76978;SDS011;65911;47.502;19.148;2023-03-23T03:04:26;22.17;;;12.82;;
76978;SDS011;65911;47.502;19.148;2023-03-23T03:07:33;24.40;;;12.18;;
76978;SDS011;65911;47.502;19.148;2023-03-23T03:10:54;23.60;;;12.38;;
76978;SDS011;65911;47.502;19.148;2023-03-23T03:14:10;21.60;;;12.40;;
76978;SDS011;65911;47.502;19.148;2023-03-23T03:20:26;23.17;;;11.93;;
76978;SDS011;65911;47.502;19.148;2023-03-23T03:23:30;20.10;;;11.20;;
76978;SDS011;65911;47.502;19.148;2023-03-23T03:26:36;22.87;;;11.73;;
76978;SDS011;65911;47.502;19.148;2023-03-23T03:29:56;23.02;;;11.65;;
76978;SDS011;65911;47.502;19.148;2023-03-23T03:32:59;25.20;;;11.70;;
76978;SDS011;65911;47.502;19.148;2023-03-23T03:36:05;24.85;;;12.05;;
76978;SDS011;65911;47.502;19.148;2023-03-23T03:39:11;21.67;;;12.07;;
76978;SDS011;65911;47.502;19.148;2023-03-23T03:42:17;27.25;;;11.75;;
76978;SDS011;65911;47.502;19.148;2023-03-23T03:45:19;23.23;;;11.95;;
76978;SDS011;65911;47.502;19.148;2023-03-23T03:48:21;22.33;;;11.17;;
76978;SDS011;65911;47.502;19.148;2023-03-23T03:51:22;21.42;;;11.48;;
76978;SDS011;65911;47.502;19.148;2023-03-23T03:54:25;24.67;;;11.93;;
76978;SDS011;65911;47.502;19.148;2023-03-23T03:57:27;23.93;;;12.17;;
76978;SDS011;65911;47.502;19.148;2023-03-23T04:00:36;22.10;;;11.63;;
76978;SDS011;65911;47.502;19.148;2023-03-23T04:03:38;21.92;;;11.73;;
76978;SDS011;65911;47.502;19.148;2023-03-23T04:06:55;22.38;;;12.85;;
76978;SDS011;65911;47.502;19.148;2023-03-23T04:09:58;25.75;;;13.68;;
76978;SDS011;65911;47.502;19.148;2023-03-23T04:12:59;25.67;;;13.65;;
76978;SDS011;65911;47.502;19.148;2023-03-23T04:16:18;24.40;;;13.88;;
76978;SDS011;65911;47.502;19.148;2023-03-23T04:19:20;27.30;;;13.73;;
76978;SDS011;65911;47.502;19.148;2023-03-23T04:22:23;27.63;;;14.77;;
76978;SDS011;65911;47.502;19.148;2023-03-23T04:25:34;26.73;;;14.70;;
76978;SDS011;65911;47.502;19.148;2023-03-23T04:28:37;27.73;;;14.90;;
76978;SDS011;65911;47.502;19.148;2023-03-23T04:31:57;34.22;;;16.13;;
76978;SDS011;65911;47.502;19.148;2023-03-23T04:35:09;33.80;;;17.88;;
76978;SDS011;65911;47.502;19.148;2023-03-23T04:38:17;38.03;;;17.95;;
76978;SDS011;65911;47.502;19.148;2023-03-23T04:41:25;37.20;;;18.67;;
76978;SDS011;65911;47.502;19.148;2023-03-23T04:44:37;37.42;;;18.30;;
76978;SDS011;65911;47.502;19.148;2023-03-23T04:47:47;37.47;;;18.33;;
76978;SDS011;65911;47.502;19.148;2023-03-23T04:51:03;36.73;;;17.80;;
76978;SDS011;65911;47.502;19.148;2023-03-23T04:54:05;35.55;;;17.88;;
76978;SDS011;65911;47.502;19.148;2023-03-23T04:57:07;37.13;;;18.65;;
76978;SDS011;65911;47.502;19.148;2023-03-23T05:00:12;38.80;;;18.27;;
76978;SDS011;65911;47.502;19.148;2023-03-23T05:03:21;35.17;;;17.45;;
76978;SDS011;65911;47.502;19.148;2023-03-23T05:06:25;33.35;;;16.83;;
76978;SDS011;65911;47.502;19.148;2023-03-23T05:09:31;32.97;;;16.70;;
76978;SDS011;65911;47.502;19.148;2023-03-23T05:12:33;35.60;;;16.85;;
76978;SDS011;65911;47.502;19.148;2023-03-23T05:15:39;30.00;;;15.73;;
76978;SDS011;65911;47.502;19.148;2023-03-23T05:18:43;32.47;;;16.15;;
76978;SDS011;65911;47.502;19.148;2023-03-23T05:21:49;32.97;;;15.47;;
76978;SDS011;65911;47.502;19.148;2023-03-23T05:24:51;30.58;;;15.63;;
76978;SDS011;65911;47.502;19.148;2023-03-23T05:27:53;29.48;;;15.18;;
76978;SDS011;65911;47.502;19.148;2023-03-23T05:31:08;30.03;;;15.53;;
76978;SDS011;65911;47.502;19.148;2023-03-23T05:34:10;30.45;;;14.68;;
76978;SDS011;65911;47.502;19.148;2023-03-23T05:37:25;32.83;;;16.65;;
76978;SDS011;65911;47.502;19.148;2023-03-23T05:40:33;34.28;;;16.75;;
76978;SDS011;65911;47.502;19.148;2023-03-23T05:43:43;35.60;;;16.98;;
76978;SDS011;65911;47.502;19.148;2023-03-23T05:46:54;32.65;;;16.38;;
76978;SDS011;65911;47.502;19.148;2023-03-23T05:49:55;33.53;;;15.60;;
76978;SDS011;65911;47.502;19.148;2023-03-23T05:52:58;29.03;;;14.60;;
76978;SDS011;65911;47.502;19.148;2023-03-23T05:56:01;27.40;;;15.18;;
76978;SDS011;65911;47.502;19.148;2023-03-23T05:59:27;28.08;;;14.93;;
76978;SDS011;65911;47.502;19.148;2023-03-23T06:02:30;27.43;;;13.70;;
76978;SDS011;65911;47.502;19.148;2023-03-23T06:05:32;27.83;;;14.38;;
76978;SDS011;65911;47.502;19.148;2023-03-23T06:08:33;28.98;;;13.90;;
76978;SDS011;65911;47.502;19.148;2023-03-23T06:11:38;25.95;;;13.68;;
76978;SDS011;65911;47.502;19.148;2023-03-23T06:14:57;26.25;;;13.40;;
76978;SDS011;65911;47.502;19.148;2023-03-23T06:18:11;23.70;;;12.75;;
76978;SDS011;65911;47.502;19.148;2023-03-23T06:21:24;24.73;;;12.68;;
76978;SDS011;65911;47.502;19.148;2023-03-23T06:24:33;24.37;;;13.00;;
76978;SDS011;65911;47.502;19.148;2023-03-23T06:27:35;22.98;;;12.80;;
76978;SDS011;65911;47.502;19.148;2023-03-23T06:30:38;22.60;;;11.98;;
76978;SDS011;65911;47.502;19.148;2023-03-23T06:33:39;21.40;;;11.57;;
76978;SDS011;65911;47.502;19.148;2023-03-23T06:36:59;23.48;;;12.07;;
76978;SDS011;65911;47.502;19.148;2023-03-23T06:40:10;21.63;;;10.82;;
76978;SDS011;65911;47.502;19.148;2023-03-23T06:43:14;18.25;;;9.82;;
76978;SDS011;65911;47.502;19.148;2023-03-23T06:46:28;19.10;;;9.48;;
76978;SDS011;65911;47.502;19.148;2023-03-23T06:49:29;15.43;;;9.00;;
76978;SDS011;65911;47.502;19.148;2023-03-23T06:52:39;16.73;;;8.85;;
76978;SDS011;65911;47.502;19.148;2023-03-23T06:55:42;17.33;;;8.30;;
76978;SDS011;65911;47.502;19.148;2023-03-23T06:58:46;15.38;;;8.95;;
76978;SDS011;65911;47.502;19.148;2023-03-23T07:01:48;14.70;;;8.27;;
76978;SDS011;65911;47.502;19.148;2023-03-23T07:04:49;15.37;;;9.30;;
76978;SDS011;65911;47.502;19.148;2023-03-23T07:07:56;15.52;;;9.63;;
76978;SDS011;65911;47.502;19.148;2023-03-23T07:11:09;16.92;;;10.00;;
76978;SDS011;65911;47.502;19.148;2023-03-23T07:14:11;15.82;;;9.85;;
76978;SDS011;65911;47.502;19.148;2023-03-23T07:17:14;17.20;;;9.98;;
76978;SDS011;65911;47.502;19.148;2023-03-23T07:20:33;18.85;;;9.52;;
76978;SDS011;65911;47.502;19.148;2023-03-23T07:23:34;18.00;;;10.38;;
76978;SDS011;65911;47.502;19.148;2023-03-23T07:26:41;21.10;;;10.40;;
76978;SDS011;65911;47.502;19.148;2023-03-23T07:29:43;17.77;;;9.23;;
76978;SDS011;65911;47.502;19.148;2023-03-23T07:32:52;17.25;;;9.57;;
76978;SDS011;65911;47.502;19.148;2023-03-23T07:35:58;16.00;;;9.43;;
76978;SDS011;65911;47.502;19.148;2023-03-23T07:39:01;16.05;;;9.77;;
76978;SDS011;65911;47.502;19.148;2023-03-23T07:42:03;16.63;;;8.80;;
76978;SDS011;65911;47.502;19.148;2023-03-23T07:45:15;18.75;;;9.98;;
76978;SDS011;65911;47.502;19.148;2023-03-23T07:48:16;15.80;;;8.77;;
76978;SDS011;65911;47.502;19.148;2023-03-23T07:51:17;17.85;;;9.88;;
76978;SDS011;65911;47.502;19.148;2023-03-23T07:54:22;15.70;;;9.20;;
76978;SDS011;65911;47.502;19.148;2023-03-23T07:57:54;19.83;;;9.80;;
76978;SDS011;65911;47.502;19.148;2023-03-23T08:00:55;16.83;;;9.23;;
76978;SDS011;65911;47.502;19.148;2023-03-23T08:04:00;17.05;;;9.38;;
76978;SDS011;65911;47.502;19.148;2023-03-23T08:07:27;15.77;;;9.57;;
76978;SDS011;65911;47.502;19.148;2023-03-23T08:10:58;15.65;;;9.18;;
76978;SDS011;65911;47.502;19.148;2023-03-23T08:14:11;15.20;;;9.07;;
76978;SDS011;65911;47.502;19.148;2023-03-23T08:17:32;19.52;;;9.80;;
76978;SDS011;65911;47.502;19.148;2023-03-23T08:20:53;16.20;;;9.45;;
76978;SDS011;65911;47.502;19.148;2023-03-23T08:23:54;17.10;;;10.10;;
76978;SDS011;65911;47.502;19.148;2023-03-23T08:27:34;16.25;;;9.63;;
76978;SDS011;65911;47.502;19.148;2023-03-23T08:31:08;13.70;;;8.67;;
76978;SDS011;65911;47.502;19.148;2023-03-23T08:34:31;15.43;;;8.50;;
76978;SDS011;65911;47.502;19.148;2023-03-23T08:37:53;17.58;;;8.30;;
76978;SDS011;65911;47.502;19.148;2023-03-23T08:41:10;16.70;;;8.47;;
76978;SDS011;65911;47.502;19.148;2023-03-23T08:44:26;13.48;;;6.75;;
76978;SDS011;65911;47.502;19.148;2023-03-23T08:47:43;14.23;;;7.50;;
76978;SDS011;65911;47.502;19.148;2023-03-23T08:51:11;16.40;;;7.03;;
76978;SDS011;65911;47.502;19.148;2023-03-23T08:54:30;11.82;;;6.97;;
76978;SDS011;65911;47.502;19.148;2023-03-23T08:57:31;10.73;;;6.93;;
76978;SDS011;65911;47.502;19.148;2023-03-23T09:00:48;11.25;;;6.68;;
76978;SDS011;65911;47.502;19.148;2023-03-23T09:04:10;11.53;;;6.13;;
76978;SDS011;65911;47.502;19.148;2023-03-23T09:07:45;14.30;;;6.30;;
76978;SDS011;65911;47.502;19.148;2023-03-23T09:11:09;8.20;;;5.53;;
76978;SDS011;65911;47.502;19.148;2023-03-23T09:14:12;11.00;;;5.83;;
76978;SDS011;65911;47.502;19.148;2023-03-23T09:17:13;10.52;;;5.65;;
76978;SDS011;65911;47.502;19.148;2023-03-23T09:20:16;10.27;;;5.82;;
76978;SDS011;65911;47.502;19.148;2023-03-23T09:23:21;9.20;;;5.30;;
76978;SDS011;65911;47.502;19.148;2023-03-23T09:26:22;11.38;;;5.28;;
76978;SDS011;65911;47.502;19.148;2023-03-23T09:29:25;12.68;;;5.20;;
76978;SDS011;65911;47.502;19.148;2023-03-23T09:32:27;11.27;;;5.15;;
76978;SDS011;65911;47.502;19.148;2023-03-23T09:35:29;8.87;;;5.03;;
76978;SDS011;65911;47.502;19.148;2023-03-23T09:38:33;7.25;;;4.57;;
76978;SDS011;65911;47.502;19.148;2023-03-23T09:52:12;9.70;;;4.97;;
76978;SDS011;65911;47.502;19.148;2023-03-23T09:55:19;10.20;;;4.63;;
76978;SDS011;65911;47.502;19.148;2023-03-23T09:58:26;7.85;;;4.20;;
76978;SDS011;65911;47.502;19.148;2023-03-23T10:01:34;8.88;;;4.78;;
76978;SDS011;65911;47.502;19.148;2023-03-23T10:04:39;11.50;;;4.40;;
76978;SDS011;65911;47.502;19.148;2023-03-23T10:07:46;8.77;;;4.00;;
76978;SDS011;65911;47.502;19.148;2023-03-23T10:11:04;7.68;;;4.13;;
76978;SDS011;65911;47.502;19.148;2023-03-23T10:14:22;7.00;;;3.58;;
76978;SDS011;65911;47.502;19.148;2023-03-23T10:17:33;5.33;;;3.20;;
76978;SDS011;65911;47.502;19.148;2023-03-23T10:23:59;6.22;;;3.10;;
76978;SDS011;65911;47.502;19.148;2023-03-23T10:27:05;5.47;;;2.83;;
76978;SDS011;65911;47.502;19.148;2023-03-23T10:30:19;6.85;;;3.50;;
76978;SDS011;65911;47.502;19.148;2023-03-23T10:36:35;4.88;;;2.72;;
76978;SDS011;65911;47.502;19.148;2023-03-23T10:39:55;7.93;;;3.10;;
76978;SDS011;65911;47.502;19.148;2023-03-23T10:43:01;6.75;;;2.95;;
76978;SDS011;65911;47.502;19.148;2023-03-23T10:46:51;5.68;;;2.55;;
76978;SDS011;65911;47.502;19.148;2023-03-23T10:49:45;6.07;;;3.30;;
76978;SDS011;65911;47.502;19.148;2023-03-23T10:52:51;4.78;;;2.47;;
76978;SDS011;65911;47.502;19.148;2023-03-23T10:55:56;5.53;;;3.10;;
76978;SDS011;65911;47.502;19.148;2023-03-23T10:59:10;7.28;;;3.30;;
76978;SDS011;65911;47.502;19.148;2023-03-23T11:02:17;5.13;;;2.95;;
76978;SDS011;65911;47.502;19.148;2023-03-23T11:05:20;6.05;;;2.70;;
76978;SDS011;65911;47.502;19.148;2023-03-23T11:08:26;4.15;;;2.60;;
76978;SDS011;65911;47.502;19.148;2023-03-23T11:11:32;4.67;;;2.70;;
76978;SDS011;65911;47.502;19.148;2023-03-23T11:14:38;6.15;;;2.72;;
76978;SDS011;65911;47.502;19.148;2023-03-23T11:17:39;8.15;;;3.05;;
76978;SDS011;65911;47.502;19.148;2023-03-23T11:20:43;7.30;;;2.53;;
76978;SDS011;65911;47.502;19.148;2023-03-23T11:23:52;12.40;;;2.92;;
76978;SDS011;65911;47.502;19.148;2023-03-23T11:26:59;4.07;;;2.15;;
76978;SDS011;65911;47.502;19.148;2023-03-23T11:30:09;9.02;;;2.60;;
76978;SDS011;65911;47.502;19.148;2023-03-23T11:33:12;6.50;;;2.40;;
76978;SDS011;65911;47.502;19.148;2023-03-23T11:36:16;4.93;;;2.42;;
76978;SDS011;65911;47.502;19.148;2023-03-23T11:39:28;4.00;;;2.17;;
76978;SDS011;65911;47.502;19.148;2023-03-23T11:45:40;4.70;;;2.45;;
76978;SDS011;65911;47.502;19.148;2023-03-23T11:48:54;5.53;;;2.05;;
76978;SDS011;65911;47.502;19.148;2023-03-23T11:52:01;3.73;;;1.87;;
76978;SDS011;65911;47.502;19.148;2023-03-23T11:55:13;6.93;;;2.20;;
76978;SDS011;65911;47.502;19.148;2023-03-23T11:58:17;4.75;;;2.20;;
76978;SDS011;65911;47.502;19.148;2023-03-23T12:04:47;4.43;;;2.30;;
76978;SDS011;65911;47.502;19.148;2023-03-23T12:11:20;4.30;;;2.13;;
76978;SDS011;65911;47.502;19.148;2023-03-23T12:14:36;4.00;;;2.00;;
76978;SDS011;65911;47.502;19.148;2023-03-23T12:17:45;5.78;;;1.77;;
76978;SDS011;65911;47.502;19.148;2023-03-23T12:21:08;3.58;;;1.88;;
76978;SDS011;65911;47.502;19.148;2023-03-23T12:41:15;3.65;;;2.10;;
76978;SDS011;65911;47.502;19.148;2023-03-23T12:44:21;4.05;;;2.22;;
76978;SDS011;65911;47.502;19.148;2023-03-23T12:48:03;4.90;;;2.23;;
76978;SDS011;65911;47.502;19.148;2023-03-23T12:51:13;3.83;;;2.03;;
76978;SDS011;65911;47.502;19.148;2023-03-23T12:54:32;7.05;;;2.42;;
76978;SDS011;65911;47.502;19.148;2023-03-23T12:57:50;3.47;;;2.07;;
76978;SDS011;65911;47.502;19.148;2023-03-23T13:00:55;3.63;;;1.83;;
76978;SDS011;65911;47.502;19.148;2023-03-23T13:07:13;3.00;;;2.17;;
76978;SDS011;65911;47.502;19.148;2023-03-23T13:10:28;4.05;;;2.28;;
76978;SDS011;65911;47.502;19.148;2023-03-23T13:23:35;2.85;;;2.00;;
76978;SDS011;65911;47.502;19.148;2023-03-23T13:26:40;3.38;;;2.00;;
76978;SDS011;65911;47.502;19.148;2023-03-23T13:29:44;5.57;;;2.00;;
76978;SDS011;65911;47.502;19.148;2023-03-23T13:32:47;3.55;;;1.88;;
76978;SDS011;65911;47.502;19.148;2023-03-23T13:35:53;5.47;;;1.90;;
76978;SDS011;65911;47.502;19.148;2023-03-23T13:38:54;5.28;;;2.10;;
76978;SDS011;65911;47.502;19.148;2023-03-23T13:48:39;4.30;;;2.28;;
76978;SDS011;65911;47.502;19.148;2023-03-23T13:54:44;8.55;;;1.90;;
76978;SDS011;65911;47.502;19.148;2023-03-23T13:57:57;7.10;;;2.10;;
76978;SDS011;65911;47.502;19.148;2023-03-23T14:04:13;8.30;;;2.17;;
76978;SDS011;65911;47.502;19.148;2023-03-23T14:07:16;6.18;;;1.98;;
76978;SDS011;65911;47.502;19.148;2023-03-23T14:10:19;4.38;;;2.10;;
76978;SDS011;65911;47.502;19.148;2023-03-23T14:13:23;6.78;;;2.65;;
76978;SDS011;65911;47.502;19.148;2023-03-23T14:19:40;3.50;;;2.22;;
76978;SDS011;65911;47.502;19.148;2023-03-23T14:22:43;4.23;;;1.83;;
76978;SDS011;65911;47.502;19.148;2023-03-23T14:25:44;3.40;;;1.67;;
76978;SDS011;65911;47.502;19.148;2023-03-23T14:28:49;4.72;;;2.22;;
76978;SDS011;65911;47.502;19.148;2023-03-23T14:31:53;5.30;;;2.20;;
76978;SDS011;65911;47.502;19.148;2023-03-23T14:34:55;4.35;;;1.80;;
76978;SDS011;65911;47.502;19.148;2023-03-23T14:37:57;3.70;;;2.15;;
76978;SDS011;65911;47.502;19.148;2023-03-23T14:41:03;6.32;;;1.88;;
76978;SDS011;65911;47.502;19.148;2023-03-23T14:44:06;4.85;;;2.20;;
76978;SDS011;65911;47.502;19.148;2023-03-23T14:47:15;7.00;;;2.03;;
76978;SDS011;65911;47.502;19.148;2023-03-23T14:50:29;6.65;;;2.00;;
76978;SDS011;65911;47.502;19.148;2023-03-23T14:53:33;3.43;;;1.73;;
76978;SDS011;65911;47.502;19.148;2023-03-23T14:56:38;3.70;;;1.83;;
76978;SDS011;65911;47.502;19.148;2023-03-23T14:59:44;2.97;;;2.05;;
76978;SDS011;65911;47.502;19.148;2023-03-23T15:02:50;3.67;;;2.10;;
76978;SDS011;65911;47.502;19.148;2023-03-23T15:05:57;3.97;;;1.65;;
76978;SDS011;65911;47.502;19.148;2023-03-23T15:09:00;4.10;;;1.63;;
76978;SDS011;65911;47.502;19.148;2023-03-23T15:12:04;3.85;;;1.75;;
76978;SDS011;65911;47.502;19.148;2023-03-23T15:15:06;4.05;;;2.10;;
76978;SDS011;65911;47.502;19.148;2023-03-23T15:18:28;2.47;;;1.80;;
76978;SDS011;65911;47.502;19.148;2023-03-23T15:21:35;5.00;;;1.80;;
76978;SDS011;65911;47.502;19.148;2023-03-23T15:24:52;4.27;;;1.50;;
76978;SDS011;65911;47.502;19.148;2023-03-23T15:27:56;3.95;;;1.52;;
76978;SDS011;65911;47.502;19.148;2023-03-23T15:31:03;2.40;;;1.80;;
76978;SDS011;65911;47.502;19.148;2023-03-23T15:34:06;5.87;;;1.70;;
76978;SDS011;65911;47.502;19.148;2023-03-23T15:37:28;2.58;;;1.70;;
76978;SDS011;65911;47.502;19.148;2023-03-23T15:40:35;6.95;;;1.70;;
76978;SDS011;65911;47.502;19.148;2023-03-23T15:43:53;3.83;;;1.88;;
76978;SDS011;65911;47.502;19.148;2023-03-23T15:47:32;4.78;;;1.77;;
76978;SDS011;65911;47.502;19.148;2023-03-23T15:53:35;4.65;;;2.10;;
76978;SDS011;65911;47.502;19.148;2023-03-23T15:56:38;2.80;;;1.43;;
76978;SDS011;65911;47.502;19.148;2023-03-23T15:59:40;8.02;;;2.20;;
76978;SDS011;65911;47.502;19.148;2023-03-23T16:02:42;5.60;;;1.88;;
76978;SDS011;65911;47.502;19.148;2023-03-23T16:05:47;3.10;;;1.60;;
76978;SDS011;65911;47.502;19.148;2023-03-23T16:08:49;4.45;;;1.98;;
76978;SDS011;65911;47.502;19.148;2023-03-23T16:11:56;4.50;;;1.90;;
76978;SDS011;65911;47.502;19.148;2023-03-23T16:14:58;4.25;;;1.90;;
76978;SDS011;65911;47.502;19.148;2023-03-23T16:18:00;3.83;;;1.63;;
76978;SDS011;65911;47.502;19.148;2023-03-23T16:21:03;3.92;;;2.17;;
76978;SDS011;65911;47.502;19.148;2023-03-23T16:24:05;4.40;;;2.00;;
76978;SDS011;65911;47.502;19.148;2023-03-23T16:27:09;4.77;;;2.10;;
76978;SDS011;65911;47.502;19.148;2023-03-23T16:30:13;4.60;;;1.80;;
76978;SDS011;65911;47.502;19.148;2023-03-23T16:33:17;3.47;;;2.10;;
76978;SDS011;65911;47.502;19.148;2023-03-23T16:36:20;4.73;;;1.70;;
76978;SDS011;65911;47.502;19.148;2023-03-23T16:39:22;3.17;;;1.65;;
76978;SDS011;65911;47.502;19.148;2023-03-23T16:42:24;2.95;;;1.50;;
76978;SDS011;65911;47.502;19.148;2023-03-23T16:45:26;2.80;;;1.80;;
76978;SDS011;65911;47.502;19.148;2023-03-23T16:48:29;3.88;;;1.52;;
76978;SDS011;65911;47.502;19.148;2023-03-23T16:51:31;4.13;;;1.90;;
76978;SDS011;65911;47.502;19.148;2023-03-23T16:54:33;3.78;;;2.20;;
76978;SDS011;65911;47.502;19.148;2023-03-23T16:57:36;2.63;;;1.67;;
76978;SDS011;65911;47.502;19.148;2023-03-23T17:00:39;2.95;;;1.80;;
76978;SDS011;65911;47.502;19.148;2023-03-23T17:03:42;3.92;;;2.00;;
76978;SDS011;65911;47.502;19.148;2023-03-23T17:06:45;5.13;;;1.60;;
76978;SDS011;65911;47.502;19.148;2023-03-23T17:09:47;5.43;;;1.77;;
76978;SDS011;65911;47.502;19.148;2023-03-23T17:12:49;4.47;;;1.80;;
76978;SDS011;65911;47.502;19.148;2023-03-23T17:15:52;5.28;;;1.73;;
76978;SDS011;65911;47.502;19.148;2023-03-23T17:18:57;5.78;;;2.10;;
76978;SDS011;65911;47.502;19.148;2023-03-23T17:21:59;3.95;;;1.67;;
76978;SDS011;65911;47.502;19.148;2023-03-23T17:25:02;3.90;;;2.00;;
76978;SDS011;65911;47.502;19.148;2023-03-23T17:28:04;3.43;;;1.80;;
76978;SDS011;65911;47.502;19.148;2023-03-23T17:31:08;5.45;;;2.17;;
76978;SDS011;65911;47.502;19.148;2023-03-23T17:34:10;7.32;;;2.10;;
76978;SDS011;65911;47.502;19.148;2023-03-23T17:37:12;5.00;;;1.90;;
76978;SDS011;65911;47.502;19.148;2023-03-23T17:40:14;5.97;;;2.15;;
76978;SDS011;65911;47.502;19.148;2023-03-23T17:43:17;5.13;;;1.95;;
76978;SDS011;65911;47.502;19.148;2023-03-23T17:46:19;5.00;;;2.42;;
76978;SDS011;65911;47.502;19.148;2023-03-23T17:49:22;4.82;;;2.28;;
76978;SDS011;65911;47.502;19.148;2023-03-23T17:52:24;6.00;;;2.15;;
76978;SDS011;65911;47.502;19.148;2023-03-23T17:55:27;4.47;;;1.88;;
76978;SDS011;65911;47.502;19.148;2023-03-23T17:58:29;3.73;;;2.40;;
76978;SDS011;65911;47.502;19.148;2023-03-23T18:01:31;7.35;;;2.65;;
76978;SDS011;65911;47.502;19.148;2023-03-23T18:04:34;5.88;;;2.42;;
76978;SDS011;65911;47.502;19.148;2023-03-23T18:07:36;3.70;;;2.67;;
76978;SDS011;65911;47.502;19.148;2023-03-23T18:10:39;6.55;;;2.67;;
76978;SDS011;65911;47.502;19.148;2023-03-23T18:13:42;7.97;;;3.47;;
76978;SDS011;65911;47.502;19.148;2023-03-23T18:16:44;5.97;;;2.90;;
76978;SDS011;65911;47.502;19.148;2023-03-23T18:19:46;9.35;;;3.60;;
76978;SDS011;65911;47.502;19.148;2023-03-23T18:22:49;9.82;;;4.20;;
76978;SDS011;65911;47.502;19.148;2023-03-23T18:25:51;6.68;;;2.95;;
76978;SDS011;65911;47.502;19.148;2023-03-23T18:28:57;6.33;;;3.20;;
76978;SDS011;65911;47.502;19.148;2023-03-23T18:31:59;8.27;;;3.85;;
76978;SDS011;65911;47.502;19.148;2023-03-23T18:35:01;8.32;;;3.60;;
76978;SDS011;65911;47.502;19.148;2023-03-23T18:38:05;10.37;;;4.20;;
76978;SDS011;65911;47.502;19.148;2023-03-23T18:41:08;7.30;;;3.55;;
76978;SDS011;65911;47.502;19.148;2023-03-23T18:44:10;9.00;;;4.20;;
76978;SDS011;65911;47.502;19.148;2023-03-23T18:47:12;7.13;;;3.63;;
76978;SDS011;65911;47.502;19.148;2023-03-23T18:50:15;8.07;;;3.63;;
76978;SDS011;65911;47.502;19.148;2023-03-23T18:53:17;8.57;;;4.65;;
76978;SDS011;65911;47.502;19.148;2023-03-23T18:56:20;6.70;;;4.15;;
76978;SDS011;65911;47.502;19.148;2023-03-23T18:59:23;7.93;;;4.50;;
76978;SDS011;65911;47.502;19.148;2023-03-23T19:02:26;8.02;;;4.15;;
76978;SDS011;65911;47.502;19.148;2023-03-23T19:05:29;8.38;;;4.13;;
76978;SDS011;65911;47.502;19.148;2023-03-23T19:08:31;8.57;;;4.53;;
76978;SDS011;65911;47.502;19.148;2023-03-23T19:11:35;12.80;;;4.82;;
76978;SDS011;65911;47.502;19.148;2023-03-23T19:14:38;6.38;;;3.97;;
76978;SDS011;65911;47.502;19.148;2023-03-23T19:17:43;9.10;;;4.68;;
76978;SDS011;65911;47.502;19.148;2023-03-23T19:20:46;14.88;;;4.85;;
76978;SDS011;65911;47.502;19.148;2023-03-23T19:24:11;11.27;;;4.90;;
76978;SDS011;65911;47.502;19.148;2023-03-23T19:27:13;12.82;;;4.63;;
76978;SDS011;65911;47.502;19.148;2023-03-23T19:30:17;10.80;;;5.27;;
76978;SDS011;65911;47.502;19.148;2023-03-23T19:33:19;10.52;;;4.95;;
76978;SDS011;65911;47.502;19.148;2023-03-23T19:36:22;8.82;;;4.75;;
76978;SDS011;65911;47.502;19.148;2023-03-23T19:39:25;8.93;;;5.37;;
76978;SDS011;65911;47.502;19.148;2023-03-23T19:42:27;10.43;;;5.70;;
76978;SDS011;65911;47.502;19.148;2023-03-23T19:45:30;10.07;;;5.20;;